createdAt,value
2019-03-31T00:03:01.559Z,98604.86
2019-03-31T00:08:07.354Z,98606.89
2019-03-31T00:13:13.626Z,98607.40
2019-03-31T00:18:19.550Z,98612.15
2019-03-31T00:23:25.347Z,98611.91
2019-03-31T00:28:31.133Z,98606.86
2019-03-31T00:33:37.097Z,98598.17
2019-03-31T00:38:43.357Z,98600.35
2019-03-31T00:43:50.153Z,98611.70
2019-03-31T00:48:55.978Z,98610.17
2019-03-31T00:54:01.695Z,98609.82
2019-03-31T00:59:08.041Z,98607.88
2019-03-31T01:04:16.757Z,98610.88
2019-03-31T01:09:26.563Z,98613.85
2019-03-31T01:14:32.655Z,98614.28
2019-03-31T01:19:38.692Z,98616.56
2019-03-31T01:24:44.590Z,98615.02
2019-03-31T01:29:50.486Z,98616.80
2019-03-31T01:34:56.559Z,98617.81
2019-03-31T01:40:02.478Z,98616.49
2019-03-31T01:45:09.972Z,98615.73
2019-03-31T01:50:17.921Z,98622.56
2019-03-31T01:55:24.168Z,98615.53
2019-03-31T02:00:50.491Z,98612.34
2019-03-31T02:05:56.390Z,98617.92
2019-03-31T02:11:03.016Z,98616.98
2019-03-31T02:16:09.227Z,98617.67
2019-03-31T02:21:15.222Z,98616.14
2019-03-31T02:26:21.471Z,98616.69
2019-03-31T02:31:28.189Z,98615.38
2019-03-31T02:36:35.658Z,98605.63
2019-03-31T02:41:41.568Z,98606.36
2019-03-31T02:46:47.442Z,98600.91
2019-03-31T02:51:53.086Z,98611.60
2019-03-31T02:56:59.090Z,98612.42
2019-03-31T03:02:05.381Z,98602.95
2019-03-31T03:07:12.999Z,98599.68
2019-03-31T03:12:21.758Z,98599.77
2019-03-31T03:17:27.964Z,98604.02
2019-03-31T03:22:34.066Z,98603.77
2019-03-31T03:27:40.322Z,98599.48
2019-03-31T03:33:12.662Z,98605.16
2019-03-31T03:37:55.575Z,98613.03
2019-03-31T03:43:01.904Z,98609.84
2019-03-31T03:48:07.699Z,98612.72
2019-03-31T03:53:13.477Z,98605.29
2019-03-31T03:58:20.069Z,98606.05
2019-03-31T04:03:30.436Z,98608.01
2019-03-31T04:08:35.936Z,98608.50
2019-03-31T04:13:42.014Z,98610.91
2019-03-31T04:18:48.283Z,98618.80
2019-03-31T04:23:54.391Z,98622.11
2019-03-31T04:29:00.487Z,98617.64
2019-03-31T04:34:06.917Z,98625.44
2019-03-31T04:39:12.597Z,98628.44
2019-03-31T04:44:18.388Z,98632.08
2019-03-31T04:49:24.195Z,98631.80
2019-03-31T04:54:29.984Z,98640.08
2019-03-31T04:59:35.814Z,98641.92
2019-03-31T05:04:41.888Z,98638.63
2019-03-31T05:09:47.583Z,98644.89
2019-03-31T05:14:53.769Z,98649.34
2019-03-31T05:20:00.861Z,98647.87
2019-03-31T05:25:07.020Z,98654.95
2019-03-31T05:30:13.225Z,98665.17
2019-03-31T05:35:19.733Z,98665.38
2019-03-31T05:40:25.420Z,98673.08
2019-03-31T05:45:31.120Z,98688.55
2019-03-31T05:50:36.814Z,98688.70
2019-03-31T05:55:42.949Z,98698.23
2019-03-31T06:00:52.211Z,98700.52
2019-03-31T06:05:58.170Z,98700.84
2019-03-31T06:11:03.966Z,98698.67
2019-03-31T06:16:09.754Z,98702.25
2019-03-31T06:21:15.484Z,98713.40
2019-03-31T06:26:21.582Z,98708.75
2019-03-31T06:31:27.638Z,98714.91
2019-03-31T06:36:35.429Z,98726.86
2019-03-31T06:41:42.471Z,98731.89
2019-03-31T06:46:48.166Z,98729.36
2019-03-31T06:51:53.850Z,98733.03
2019-03-31T06:56:59.761Z,98730.89
2019-03-31T07:02:05.658Z,98737.71
2019-03-31T07:07:11.376Z,98744.49
2019-03-31T07:12:17.578Z,98746.30
2019-03-31T07:17:23.295Z,98746.39
2019-03-31T07:22:28.977Z,98752.08
2019-03-31T07:27:35.183Z,98758.67
2019-03-31T07:32:41.307Z,98762.19
2019-03-31T07:37:48.047Z,98767.36
2019-03-31T07:42:54.210Z,98769.23
2019-03-31T07:47:59.955Z,98779.93
2019-03-31T07:53:06.052Z,98782.61
2019-03-31T07:58:11.829Z,98780.66
2019-03-31T08:03:18.196Z,98781.80
2019-03-31T08:08:24.335Z,98790.28
2019-03-31T08:13:30.160Z,98789.34
2019-03-31T08:18:36.358Z,98795.48
2019-03-31T08:23:43.176Z,98806.94
2019-03-31T08:28:48.969Z,98805.08
2019-03-31T08:33:55.272Z,98825.23
2019-03-31T08:39:01.347Z,98833.51
2019-03-31T08:44:09.311Z,98843.69
2019-03-31T08:49:15.214Z,98859.62
2019-03-31T08:54:21.127Z,98862.02
2019-03-31T08:59:27.847Z,98871.90
2019-03-31T09:04:33.548Z,98884.01
2019-03-31T09:09:39.661Z,98886.03
2019-03-31T09:14:45.493Z,98879.53
2019-03-31T09:19:51.676Z,98886.08
2019-03-31T09:24:57.451Z,98889.30
2019-03-31T09:30:03.235Z,98887.30
2019-03-31T09:35:10.136Z,98896.42
2019-03-31T09:40:16.247Z,98895.64
2019-03-31T09:45:22.525Z,98893.42
2019-03-31T09:50:28.317Z,98906.78
2019-03-31T09:55:34.663Z,98916.56
2019-03-31T10:00:50.709Z,98912.31
2019-03-31T10:06:09.920Z,98905.83
2019-03-31T10:11:05.493Z,98914.95
2019-03-31T10:16:11.663Z,98918.72
2019-03-31T10:21:17.501Z,98914.40
2019-03-31T10:26:31.865Z,98908.73
2019-03-31T10:31:31.199Z,98905.77
2019-03-31T10:36:44.412Z,98905.35
2019-03-31T10:41:44.872Z,98907.54
2019-03-31T10:46:50.973Z,98908.16
2019-03-31T10:51:56.791Z,98913.72
2019-03-31T10:57:03.044Z,98914.31
2019-03-31T11:02:09.222Z,98917.94
2019-03-31T11:07:15.322Z,98922.32
2019-03-31T11:12:21.112Z,98919.45
2019-03-31T11:17:26.904Z,98928.70
2019-03-31T11:22:55.666Z,98928.74
2019-03-31T11:28:01.555Z,98940.15
2019-03-31T11:33:07.942Z,98947.97
2019-03-31T11:38:14.232Z,98946.02
2019-03-31T11:43:20.113Z,98956.26
2019-03-31T11:48:25.887Z,98962.11
2019-03-31T11:53:32.201Z,98956.87
2019-03-31T11:58:40.977Z,98953.66
2019-03-31T12:03:46.845Z,98956.00
2019-03-31T12:08:52.681Z,98954.11
2019-03-31T12:13:59.664Z,98957.03
2019-03-31T12:19:05.835Z,98946.95
2019-03-31T12:24:11.802Z,98943.88
2019-03-31T12:29:17.991Z,98948.69
2019-03-31T12:34:25.620Z,98944.89
2019-03-31T12:39:31.655Z,98947.53
2019-03-31T12:44:37.553Z,98945.41
2019-03-31T12:49:43.440Z,98945.16
2019-03-31T12:54:49.231Z,98945.66
2019-03-31T12:59:55.698Z,98936.33
2019-03-31T13:05:01.620Z,98953.31
2019-03-31T13:10:07.739Z,98953.52
2019-03-31T13:15:14.154Z,98970.38
2019-03-31T13:20:19.955Z,98941.03
2019-03-31T13:25:26.827Z,98953.77
2019-03-31T13:30:32.618Z,98947.95
2019-03-31T13:35:38.540Z,98935.79
2019-03-31T13:40:45.168Z,98927.13
2019-03-31T13:45:50.959Z,98931.27
2019-03-31T13:50:56.840Z,98926.98
2019-03-31T13:56:03.207Z,98921.55
2019-03-31T14:01:11.810Z,98924.19
2019-03-31T14:06:18.113Z,98925.27
2019-03-31T14:11:25.076Z,98919.02
2019-03-31T14:16:30.896Z,98918.84
2019-03-31T14:21:40.109Z,98925.41
2019-03-31T14:26:47.696Z,98921.02
2019-03-31T14:31:53.629Z,98932.35
2019-03-31T14:36:59.893Z,98927.85
2019-03-31T14:42:05.777Z,98936.95
2019-03-31T14:47:12.046Z,98930.20
2019-03-31T14:52:27.219Z,98936.00
2019-03-31T14:57:25.752Z,98929.50
2019-03-31T15:02:31.518Z,98928.19
2019-03-31T15:07:37.277Z,98924.34
2019-03-31T15:12:44.333Z,98927.61
2019-03-31T15:17:50.981Z,98925.67
2019-03-31T15:22:57.124Z,98931.59
2019-03-31T15:28:03.742Z,98933.21
2019-03-31T15:33:09.869Z,98935.85
2019-03-31T15:38:16.113Z,98928.47
2019-03-31T15:43:22.029Z,98936.77
2019-03-31T15:48:27.870Z,98930.92
2019-03-31T15:53:34.390Z,98929.80
2019-03-31T15:58:40.199Z,98930.20
2019-03-31T16:03:45.975Z,98933.21
2019-03-31T16:08:51.218Z,98935.76
2019-03-31T16:13:56.532Z,98930.59
2019-03-31T16:19:03.973Z,98931.28
2019-03-31T16:24:09.357Z,98938.39
2019-03-31T16:29:14.967Z,98932.23
2019-03-31T16:34:20.619Z,98942.16
2019-03-31T16:39:36.886Z,98940.52
2019-03-31T16:44:33.366Z,98946.32
2019-03-31T16:49:38.913Z,98946.03
2019-03-31T16:54:44.223Z,98947.50
2019-03-31T16:59:50.184Z,98943.30
2019-03-31T17:04:55.444Z,98937.67
2019-03-31T17:10:01.227Z,98936.16
2019-03-31T17:15:08.032Z,98938.86
2019-03-31T17:20:13.492Z,98948.33
2019-03-31T17:25:18.731Z,98950.97
2019-03-31T17:30:24.331Z,98954.88
2019-03-31T17:35:29.569Z,98955.27
2019-03-31T17:40:35.181Z,98960.69
2019-03-31T17:45:40.718Z,98961.27
2019-03-31T17:50:47.520Z,98965.57
2019-03-31T17:55:53.047Z,98965.66
2019-03-31T18:00:58.286Z,98966.42
2019-03-31T18:06:03.531Z,98973.98
2019-03-31T18:11:08.766Z,98973.98
2019-03-31T18:16:14.408Z,98977.45
2019-03-31T18:21:19.665Z,98977.19
2019-03-31T18:26:25.989Z,98982.34
2019-03-31T18:31:31.229Z,98984.89
2019-03-31T18:36:37.339Z,98992.65
2019-03-31T18:41:43.008Z,98995.47
2019-03-31T18:46:48.179Z,99001.34
2019-03-31T18:51:53.464Z,99007.19
2019-03-31T18:57:10.950Z,99008.68
2019-03-31T19:02:45.624Z,99014.69
2019-03-31T19:08:18.884Z,99014.41
2019-03-31T19:13:37.540Z,99005.83
2019-03-31T19:18:58.474Z,99016.25
2019-03-31T19:24:18.473Z,99023.03
2019-03-31T19:29:45.421Z,99022.89
2019-03-31T19:35:09.716Z,99029.00
2019-03-31T19:40:26.666Z,99034.93
2019-03-31T19:45:50.940Z,99032.66
2019-03-31T19:51:21.604Z,99033.17
2019-03-31T19:56:47.499Z,99039.23
2019-03-31T20:02:13.010Z,99041.09
2019-03-31T20:07:46.485Z,99039.82
2019-03-31T20:13:11.121Z,99050.20
2019-03-31T20:18:41.979Z,99045.59
2019-03-31T20:24:09.281Z,99046.61
2019-03-31T20:29:39.328Z,99052.19
2019-03-31T20:35:05.428Z,99045.12
2019-03-31T20:40:17.644Z,99049.91
2019-03-31T20:45:22.814Z,99051.88
2019-03-31T20:50:28.063Z,99050.56
2019-03-31T20:55:33.681Z,99046.11
2019-03-31T21:00:39.740Z,99040.71
2019-03-31T21:05:45.336Z,99046.77
2019-03-31T21:10:50.871Z,99048.43
2019-03-31T21:15:57.493Z,99051.23
2019-03-31T21:21:02.686Z,99062.68
2019-03-31T21:26:07.861Z,99054.48
2019-03-31T21:31:13.035Z,99063.33
2019-03-31T21:36:18.304Z,99070.36
2019-03-31T21:41:23.725Z,99072.33
2019-03-31T21:46:29.932Z,99076.14
2019-03-31T21:51:36.575Z,99074.47
2019-03-31T21:56:41.736Z,99076.27
2019-03-31T22:01:46.885Z,99079.69
2019-03-31T22:06:52.037Z,99076.48
2019-03-31T22:11:57.462Z,99080.34
2019-03-31T22:17:02.733Z,99085.55
2019-03-31T22:22:09.577Z,99086.84
2019-03-31T22:27:14.797Z,99087.07
2019-03-31T22:32:20.485Z,99082.16
2019-03-31T22:37:26.127Z,99089.91
2019-03-31T22:42:31.914Z,99084.63
2019-03-31T22:47:37.806Z,99090.64
2019-03-31T22:52:43.670Z,99094.03
2019-03-31T22:57:49.375Z,99086.52
2019-03-31T23:02:54.531Z,99080.66
2019-03-31T23:07:59.613Z,99078.14
2019-03-31T23:13:04.765Z,99070.75
2019-03-31T23:18:10.214Z,99076.64
2019-03-31T23:23:16.510Z,99068.08
2019-03-31T23:28:21.688Z,99074.48
2019-03-31T23:33:28.047Z,99070.50
2019-03-31T23:38:33.513Z,99062.28
2019-03-31T23:43:38.663Z,99070.54
2019-03-31T23:48:44.074Z,99069.00
2019-03-31T23:53:49.217Z,99060.78
2019-03-31T23:58:54.501Z,99057.53
